sensor_id;sensor_type;location;lat;lon;timestamp;temperature;humidity
74968;SHT30;63523;51.880;12.630;2023-01-23T00:00:54;2.41;87.10
74968;SHT30;63523;51.880;12.630;2023-01-23T00:03:20;2.35;87.39
74968;SHT30;63523;51.880;12.630;2023-01-23T00:05:58;2.38;87.50
74968;SHT30;63523;51.880;12.630;2023-01-23T00:08:24;2.42;86.93
74968;SHT30;63523;51.880;12.630;2023-01-23T00:10:50;2.58;86.23
74968;SHT30;63523;51.880;12.630;2023-01-23T00:13:16;2.48;86.53
74968;SHT30;63523;51.880;12.630;2023-01-23T00:15:42;2.49;86.67
74968;SHT30;63523;51.880;12.630;2023-01-23T00:18:07;2.53;86.63
74968;SHT30;63523;51.880;12.630;2023-01-23T00:20:36;2.59;86.22
74968;SHT30;63523;51.880;12.630;2023-01-23T00:23:02;2.56;86.36
74968;SHT30;63523;51.880;12.630;2023-01-23T00:25:27;2.51;86.99
74968;SHT30;63523;51.880;12.630;2023-01-23T00:27:52;2.56;86.99
74968;SHT30;63523;51.880;12.630;2023-01-23T00:30:18;2.44;86.82
74968;SHT30;63523;51.880;12.630;2023-01-23T00:32:43;2.45;86.95
74968;SHT30;63523;51.880;12.630;2023-01-23T00:35:09;2.37;87.42
74968;SHT30;63523;51.880;12.630;2023-01-23T00:37:34;2.38;87.11
74968;SHT30;63523;51.880;12.630;2023-01-23T00:40:00;2.44;87.05
74968;SHT30;63523;51.880;12.630;2023-01-23T00:42:26;2.45;87.23
74968;SHT30;63523;51.880;12.630;2023-01-23T00:44:51;2.35;87.36
74968;SHT30;63523;51.880;12.630;2023-01-23T00:47:17;2.33;87.84
74968;SHT30;63523;51.880;12.630;2023-01-23T00:49:42;2.42;87.17
74968;SHT30;63523;51.880;12.630;2023-01-23T00:52:08;2.49;87.15
74968;SHT30;63523;51.880;12.630;2023-01-23T00:54:33;2.53;86.66
74968;SHT30;63523;51.880;12.630;2023-01-23T00:56:59;2.38;87.23
74968;SHT30;63523;51.880;12.630;2023-01-23T00:59:24;2.34;87.45
74968;SHT30;63523;51.880;12.630;2023-01-23T01:01:50;2.52;87.13
74968;SHT30;63523;51.880;12.630;2023-01-23T01:04:16;2.46;87.09
74968;SHT30;63523;51.880;12.630;2023-01-23T01:06:41;2.45;87.03
74968;SHT30;63523;51.880;12.630;2023-01-23T01:09:07;2.37;87.23
74968;SHT30;63523;51.880;12.630;2023-01-23T01:11:32;2.45;87.86
74968;SHT30;63523;51.880;12.630;2023-01-23T01:13:58;2.49;87.21
74968;SHT30;63523;51.880;12.630;2023-01-23T01:16:23;2.42;87.37
74968;SHT30;63523;51.880;12.630;2023-01-23T01:18:49;2.51;87.03
74968;SHT30;63523;51.880;12.630;2023-01-23T01:21:16;2.52;87.13
74968;SHT30;63523;51.880;12.630;2023-01-23T01:23:42;2.56;87.15
74968;SHT30;63523;51.880;12.630;2023-01-23T01:26:08;2.53;86.82
74968;SHT30;63523;51.880;12.630;2023-01-23T01:28:36;2.45;87.22
74968;SHT30;63523;51.880;12.630;2023-01-23T01:31:05;2.48;87.37
74968;SHT30;63523;51.880;12.630;2023-01-23T01:33:31;2.41;87.58
74968;SHT30;63523;51.880;12.630;2023-01-23T01:35:57;2.38;87.89
74968;SHT30;63523;51.880;12.630;2023-01-23T01:38:23;2.45;87.94
74968;SHT30;63523;51.880;12.630;2023-01-23T01:40:48;2.52;87.36
74968;SHT30;63523;51.880;12.630;2023-01-23T01:43:20;2.56;86.92
74968;SHT30;63523;51.880;12.630;2023-01-23T01:48:35;2.58;87.22
74968;SHT30;63523;51.880;12.630;2023-01-23T01:51:06;2.51;87.22
74968;SHT30;63523;51.880;12.630;2023-01-23T01:53:34;2.46;87.19
74968;SHT30;63523;51.880;12.630;2023-01-23T01:56:05;2.51;87.61
74968;SHT30;63523;51.880;12.630;2023-01-23T01:58:32;2.51;87.21
74968;SHT30;63523;51.880;12.630;2023-01-23T02:00:57;2.40;87.69
74968;SHT30;63523;51.880;12.630;2023-01-23T02:03:23;2.44;87.82
74968;SHT30;63523;51.880;12.630;2023-01-23T02:05:50;2.37;87.96
74968;SHT30;63523;51.880;12.630;2023-01-23T02:10:56;2.37;88.08
74968;SHT30;63523;51.880;12.630;2023-01-23T02:13:29;2.41;88.23
74968;SHT30;63523;51.880;12.630;2023-01-23T02:15:59;2.46;87.39
74968;SHT30;63523;51.880;12.630;2023-01-23T02:18:26;2.35;88.28
74968;SHT30;63523;51.880;12.630;2023-01-23T02:20:53;2.44;88.02
74968;SHT30;63523;51.880;12.630;2023-01-23T02:26:13;2.48;87.75
74968;SHT30;63523;51.880;12.630;2023-01-23T02:28:49;2.37;88.12
74968;SHT30;63523;51.880;12.630;2023-01-23T02:31:16;2.44;88.29
74968;SHT30;63523;51.880;12.630;2023-01-23T02:33:44;2.53;87.69
74968;SHT30;63523;51.880;12.630;2023-01-23T02:36:10;2.44;88.11
74968;SHT30;63523;51.880;12.630;2023-01-23T02:38:44;2.35;88.54
74968;SHT30;63523;51.880;12.630;2023-01-23T02:41:14;2.35;88.40
74968;SHT30;63523;51.880;12.630;2023-01-23T02:43:41;2.42;88.64
74968;SHT30;63523;51.880;12.630;2023-01-23T02:46:09;2.38;88.41
74968;SHT30;63523;51.880;12.630;2023-01-23T02:48:36;2.37;88.61
74968;SHT30;63523;51.880;12.630;2023-01-23T02:51:04;2.51;88.00
74968;SHT30;63523;51.880;12.630;2023-01-23T02:53:30;2.38;88.40
74968;SHT30;63523;51.880;12.630;2023-01-23T02:55:55;2.48;88.07
74968;SHT30;63523;51.880;12.630;2023-01-23T02:58:23;2.38;88.23
74968;SHT30;63523;51.880;12.630;2023-01-23T03:01:07;2.34;88.20
74968;SHT30;63523;51.880;12.630;2023-01-23T03:03:32;2.34;88.74
74968;SHT30;63523;51.880;12.630;2023-01-23T03:05:58;2.41;88.58
74968;SHT30;63523;51.880;12.630;2023-01-23T03:08:27;2.35;88.69
74968;SHT30;63523;51.880;12.630;2023-01-23T03:10:58;2.46;88.10
74968;SHT30;63523;51.880;12.630;2023-01-23T03:13:24;2.37;88.40
74968;SHT30;63523;51.880;12.630;2023-01-23T03:15:50;2.38;88.71
74968;SHT30;63523;51.880;12.630;2023-01-23T03:18:18;2.46;88.21
74968;SHT30;63523;51.880;12.630;2023-01-23T03:20:44;2.38;88.47
74968;SHT30;63523;51.880;12.630;2023-01-23T03:23:10;2.33;88.93
74968;SHT30;63523;51.880;12.630;2023-01-23T03:25:35;2.38;88.66
74968;SHT30;63523;51.880;12.630;2023-01-23T03:28:01;2.38;88.82
74968;SHT30;63523;51.880;12.630;2023-01-23T03:30:27;2.38;88.86
74968;SHT30;63523;51.880;12.630;2023-01-23T03:32:52;2.33;89.11
74968;SHT30;63523;51.880;12.630;2023-01-23T03:35:18;2.38;89.30
74968;SHT30;63523;51.880;12.630;2023-01-23T03:37:45;2.42;88.98
74968;SHT30;63523;51.880;12.630;2023-01-23T03:40:21;2.41;88.82
74968;SHT30;63523;51.880;12.630;2023-01-23T03:43:05;2.40;88.73
74968;SHT30;63523;51.880;12.630;2023-01-23T03:45:31;2.35;89.30
74968;SHT30;63523;51.880;12.630;2023-01-23T03:47:57;2.49;88.63
74968;SHT30;63523;51.880;12.630;2023-01-23T03:50:22;2.46;88.53
74968;SHT30;63523;51.880;12.630;2023-01-23T03:52:48;2.42;89.38
74968;SHT30;63523;51.880;12.630;2023-01-23T03:55:13;2.45;88.71
74968;SHT30;63523;51.880;12.630;2023-01-23T03:57:39;2.48;89.06
74968;SHT30;63523;51.880;12.630;2023-01-23T04:00:05;2.55;88.47
74968;SHT30;63523;51.880;12.630;2023-01-23T04:02:31;2.41;88.69
74968;SHT30;63523;51.880;12.630;2023-01-23T04:04:57;2.23;89.57
74968;SHT30;63523;51.880;12.630;2023-01-23T04:07:23;2.35;89.32
74968;SHT30;63523;51.880;12.630;2023-01-23T04:09:48;2.34;89.51
74968;SHT30;63523;51.880;12.630;2023-01-23T04:12:14;2.27;89.93
74968;SHT30;63523;51.880;12.630;2023-01-23T04:14:40;2.20;89.98
74968;SHT30;63523;51.880;12.630;2023-01-23T04:17:06;2.24;90.31
74968;SHT30;63523;51.880;12.630;2023-01-23T04:19:33;2.27;90.11
74968;SHT30;63523;51.880;12.630;2023-01-23T04:21:59;2.34;89.81
74968;SHT30;63523;51.880;12.630;2023-01-23T04:24:24;2.37;89.59
74968;SHT30;63523;51.880;12.630;2023-01-23T04:26:50;2.31;89.88
74968;SHT30;63523;51.880;12.630;2023-01-23T04:29:16;2.37;89.54
74968;SHT30;63523;51.880;12.630;2023-01-23T04:31:41;2.40;89.44
74968;SHT30;63523;51.880;12.630;2023-01-23T04:34:07;2.33;89.86
74968;SHT30;63523;51.880;12.630;2023-01-23T04:36:33;2.40;89.29
74968;SHT30;63523;51.880;12.630;2023-01-23T04:38:59;2.41;89.50
74968;SHT30;63523;51.880;12.630;2023-01-23T04:41:26;2.49;88.94
74968;SHT30;63523;51.880;12.630;2023-01-23T04:43:53;2.53;88.77
74968;SHT30;63523;51.880;12.630;2023-01-23T04:46:18;2.42;89.23
74968;SHT30;63523;51.880;12.630;2023-01-23T04:48:44;2.33;89.66
74968;SHT30;63523;51.880;12.630;2023-01-23T04:51:09;2.37;89.38
74968;SHT30;63523;51.880;12.630;2023-01-23T04:53:35;2.33;89.68
74968;SHT30;63523;51.880;12.630;2023-01-23T04:56:01;2.34;89.58
74968;SHT30;63523;51.880;12.630;2023-01-23T04:58:27;2.33;89.68
74968;SHT30;63523;51.880;12.630;2023-01-23T05:00:52;2.31;89.49
74968;SHT30;63523;51.880;12.630;2023-01-23T05:03:18;2.33;89.48
74968;SHT30;63523;51.880;12.630;2023-01-23T05:05:44;2.35;89.39
74968;SHT30;63523;51.880;12.630;2023-01-23T05:08:10;2.35;89.38
74968;SHT30;63523;51.880;12.630;2023-01-23T05:10:36;2.44;89.18
74968;SHT30;63523;51.880;12.630;2023-01-23T05:13:02;2.52;88.83
74968;SHT30;63523;51.880;12.630;2023-01-23T05:15:28;2.52;88.74
74968;SHT30;63523;51.880;12.630;2023-01-23T05:17:53;2.48;88.77
74968;SHT30;63523;51.880;12.630;2023-01-23T05:20:22;2.42;88.90
74968;SHT30;63523;51.880;12.630;2023-01-23T05:22:49;2.41;89.22
74968;SHT30;63523;51.880;12.630;2023-01-23T05:25:23;2.42;88.98
74968;SHT30;63523;51.880;12.630;2023-01-23T05:27:49;2.38;89.19
74968;SHT30;63523;51.880;12.630;2023-01-23T05:30:15;2.33;89.48
74968;SHT30;63523;51.880;12.630;2023-01-23T05:32:41;2.38;89.53
74968;SHT30;63523;51.880;12.630;2023-01-23T05:35:07;2.44;89.08
74968;SHT30;63523;51.880;12.630;2023-01-23T05:37:32;2.38;89.10
74968;SHT30;63523;51.880;12.630;2023-01-23T05:39:58;2.33;89.73
74968;SHT30;63523;51.880;12.630;2023-01-23T05:42:23;2.34;89.29
74968;SHT30;63523;51.880;12.630;2023-01-23T05:44:49;2.41;89.35
74968;SHT30;63523;51.880;12.630;2023-01-23T05:47:14;2.41;89.07
74968;SHT30;63523;51.880;12.630;2023-01-23T05:49:40;2.34;89.41
74968;SHT30;63523;51.880;12.630;2023-01-23T05:52:05;2.38;89.57
74968;SHT30;63523;51.880;12.630;2023-01-23T05:54:31;2.42;89.48
74968;SHT30;63523;51.880;12.630;2023-01-23T05:56:56;2.45;89.15
74968;SHT30;63523;51.880;12.630;2023-01-23T05:59:22;2.38;89.17
74968;SHT30;63523;51.880;12.630;2023-01-23T06:01:47;2.35;89.48
74968;SHT30;63523;51.880;12.630;2023-01-23T06:04:13;2.40;89.50
74968;SHT30;63523;51.880;12.630;2023-01-23T06:06:41;2.38;89.32
74968;SHT30;63523;51.880;12.630;2023-01-23T06:09:07;2.33;89.67
74968;SHT30;63523;51.880;12.630;2023-01-23T06:11:33;2.34;89.69
74968;SHT30;63523;51.880;12.630;2023-01-23T06:13:59;2.38;89.45
74968;SHT30;63523;51.880;12.630;2023-01-23T06:16:25;2.44;89.48
74968;SHT30;63523;51.880;12.630;2023-01-23T06:18:50;2.41;89.20
74968;SHT30;63523;51.880;12.630;2023-01-23T06:21:16;2.42;89.45
74968;SHT30;63523;51.880;12.630;2023-01-23T06:23:43;2.40;89.24
74968;SHT30;63523;51.880;12.630;2023-01-23T06:26:08;2.46;89.20
74968;SHT30;63523;51.880;12.630;2023-01-23T06:28:34;2.41;89.24
74968;SHT30;63523;51.880;12.630;2023-01-23T06:31:00;2.45;89.25
74968;SHT30;63523;51.880;12.630;2023-01-23T06:33:26;2.42;88.88
74968;SHT30;63523;51.880;12.630;2023-01-23T06:35:59;2.45;88.99
74968;SHT30;63523;51.880;12.630;2023-01-23T06:38:26;2.40;89.15
74968;SHT30;63523;51.880;12.630;2023-01-23T06:40:51;2.45;88.99
74968;SHT30;63523;51.880;12.630;2023-01-23T06:43:17;2.44;88.98
74968;SHT30;63523;51.880;12.630;2023-01-23T06:45:46;2.52;88.49
74968;SHT30;63523;51.880;12.630;2023-01-23T06:48:12;2.46;88.42
74968;SHT30;63523;51.880;12.630;2023-01-23T06:50:41;2.49;88.60
74968;SHT30;63523;51.880;12.630;2023-01-23T06:53:07;2.37;89.06
74968;SHT30;63523;51.880;12.630;2023-01-23T06:55:36;2.40;88.86
74968;SHT30;63523;51.880;12.630;2023-01-23T06:58:02;2.37;89.06
74968;SHT30;63523;51.880;12.630;2023-01-23T07:00:27;2.44;88.81
74968;SHT30;63523;51.880;12.630;2023-01-23T07:02:53;2.44;88.82
74968;SHT30;63523;51.880;12.630;2023-01-23T07:05:23;2.46;88.50
74968;SHT30;63523;51.880;12.630;2023-01-23T07:07:50;2.46;88.38
74968;SHT30;63523;51.880;12.630;2023-01-23T07:10:19;2.41;88.74
74968;SHT30;63523;51.880;12.630;2023-01-23T07:12:44;2.42;88.55
74968;SHT30;63523;51.880;12.630;2023-01-23T07:15:10;2.46;88.22
74968;SHT30;63523;51.880;12.630;2023-01-23T07:17:35;2.40;88.44
74968;SHT30;63523;51.880;12.630;2023-01-23T07:20:01;2.41;88.47
74968;SHT30;63523;51.880;12.630;2023-01-23T07:22:26;2.37;88.85
74968;SHT30;63523;51.880;12.630;2023-01-23T07:24:52;2.46;88.25
74968;SHT30;63523;51.880;12.630;2023-01-23T07:27:17;2.48;88.30
74968;SHT30;63523;51.880;12.630;2023-01-23T07:29:43;2.53;88.50
74968;SHT30;63523;51.880;12.630;2023-01-23T07:32:08;2.59;87.56
74968;SHT30;63523;51.880;12.630;2023-01-23T07:34:34;2.48;88.29
74968;SHT30;63523;51.880;12.630;2023-01-23T07:36:59;2.56;87.90
74968;SHT30;63523;51.880;12.630;2023-01-23T07:39:25;2.55;87.81
74968;SHT30;63523;51.880;12.630;2023-01-23T07:41:50;2.55;88.16
74968;SHT30;63523;51.880;12.630;2023-01-23T07:44:18;2.56;87.93
74968;SHT30;63523;51.880;12.630;2023-01-23T07:46:45;2.52;88.07
74968;SHT30;63523;51.880;12.630;2023-01-23T07:49:11;2.59;88.36
74968;SHT30;63523;51.880;12.630;2023-01-23T07:51:37;2.59;88.15
74968;SHT30;63523;51.880;12.630;2023-01-23T07:54:03;2.58;88.42
74968;SHT30;63523;51.880;12.630;2023-01-23T07:56:29;2.76;87.25
74968;SHT30;63523;51.880;12.630;2023-01-23T07:58:54;2.73;87.71
74968;SHT30;63523;51.880;12.630;2023-01-23T08:01:20;2.72;87.46
74968;SHT30;63523;51.880;12.630;2023-01-23T08:03:45;2.73;87.71
74968;SHT30;63523;51.880;12.630;2023-01-23T08:06:11;2.63;88.07
74968;SHT30;63523;51.880;12.630;2023-01-23T08:08:37;2.69;88.25
74968;SHT30;63523;51.880;12.630;2023-01-23T08:11:04;2.68;88.15
74968;SHT30;63523;51.880;12.630;2023-01-23T08:13:33;2.69;88.11
74968;SHT30;63523;51.880;12.630;2023-01-23T08:15:59;2.73;87.58
74968;SHT30;63523;51.880;12.630;2023-01-23T08:18:25;2.90;86.65
74968;SHT30;63523;51.880;12.630;2023-01-23T08:20:58;2.83;86.78
74968;SHT30;63523;51.880;12.630;2023-01-23T08:23:32;2.80;86.99
74968;SHT30;63523;51.880;12.630;2023-01-23T08:26:00;2.75;87.39
74968;SHT30;63523;51.880;12.630;2023-01-23T08:28:26;2.83;86.91
74968;SHT30;63523;51.880;12.630;2023-01-23T08:30:52;2.75;87.36
74968;SHT30;63523;51.880;12.630;2023-01-23T08:33:19;2.82;87.28
74968;SHT30;63523;51.880;12.630;2023-01-23T08:35:52;2.82;86.93
74968;SHT30;63523;51.880;12.630;2023-01-23T08:38:18;2.79;87.07
74968;SHT30;63523;51.880;12.630;2023-01-23T08:40:45;2.75;87.14
74968;SHT30;63523;51.880;12.630;2023-01-23T08:43:11;2.79;86.98
74968;SHT30;63523;51.880;12.630;2023-01-23T08:45:47;2.90;86.70
74968;SHT30;63523;51.880;12.630;2023-01-23T08:48:13;2.89;86.50
74968;SHT30;63523;51.880;12.630;2023-01-23T08:50:41;2.95;86.78
74968;SHT30;63523;51.880;12.630;2023-01-23T08:53:07;2.96;86.57
74968;SHT30;63523;51.880;12.630;2023-01-23T08:55:33;2.95;86.16
74968;SHT30;63523;51.880;12.630;2023-01-23T08:58:00;2.82;86.83
74968;SHT30;63523;51.880;12.630;2023-01-23T09:00:26;2.82;87.31
74968;SHT30;63523;51.880;12.630;2023-01-23T09:02:52;2.83;87.06
74968;SHT30;63523;51.880;12.630;2023-01-23T09:05:18;2.79;87.42
74968;SHT30;63523;51.880;12.630;2023-01-23T09:07:43;2.79;87.26
74968;SHT30;63523;51.880;12.630;2023-01-23T09:10:09;2.72;87.31
74968;SHT30;63523;51.880;12.630;2023-01-23T09:12:37;2.79;87.81
74968;SHT30;63523;51.880;12.630;2023-01-23T09:15:03;2.76;87.57
74968;SHT30;63523;51.880;12.630;2023-01-23T09:17:29;2.89;87.03
74968;SHT30;63523;51.880;12.630;2023-01-23T09:19:54;2.83;87.21
74968;SHT30;63523;51.880;12.630;2023-01-23T09:22:20;2.75;87.61
74968;SHT30;63523;51.880;12.630;2023-01-23T09:24:45;2.82;87.66
74968;SHT30;63523;51.880;12.630;2023-01-23T09:27:10;2.87;87.31
74968;SHT30;63523;51.880;12.630;2023-01-23T09:29:36;2.85;86.97
74968;SHT30;63523;51.880;12.630;2023-01-23T09:32:02;2.79;87.37
74968;SHT30;63523;51.880;12.630;2023-01-23T09:34:31;2.87;87.52
74968;SHT30;63523;51.880;12.630;2023-01-23T09:36:56;2.93;86.53
74968;SHT30;63523;51.880;12.630;2023-01-23T09:39:22;2.86;87.04
74968;SHT30;63523;51.880;12.630;2023-01-23T09:41:48;2.80;87.30
74968;SHT30;63523;51.880;12.630;2023-01-23T09:44:20;2.86;87.79
74968;SHT30;63523;51.880;12.630;2023-01-23T09:46:49;2.89;87.02
74968;SHT30;63523;51.880;12.630;2023-01-23T09:52:19;2.93;87.71
74968;SHT30;63523;51.880;12.630;2023-01-23T09:54:47;3.06;86.72
74968;SHT30;63523;51.880;12.630;2023-01-23T09:57:24;3.01;86.65
74968;SHT30;63523;51.880;12.630;2023-01-23T10:00:04;2.95;87.47
74968;SHT30;63523;51.880;12.630;2023-01-23T10:02:31;3.06;87.08
74968;SHT30;63523;51.880;12.630;2023-01-23T10:04:58;3.01;87.17
74968;SHT30;63523;51.880;12.630;2023-01-23T10:07:33;2.96;87.76
74968;SHT30;63523;51.880;12.630;2023-01-23T10:15:27;2.96;87.68
74968;SHT30;63523;51.880;12.630;2023-01-23T10:26:18;3.00;87.09
74968;SHT30;63523;51.880;12.630;2023-01-23T10:28:45;3.07;87.42
74968;SHT30;63523;51.880;12.630;2023-01-23T10:31:23;3.08;87.56
74968;SHT30;63523;51.880;12.630;2023-01-23T10:39:07;3.24;86.48
74968;SHT30;63523;51.880;12.630;2023-01-23T10:41:34;3.28;86.48
74968;SHT30;63523;51.880;12.630;2023-01-23T10:44:00;3.34;86.36
74968;SHT30;63523;51.880;12.630;2023-01-23T10:46:32;3.44;85.48
74968;SHT30;63523;51.880;12.630;2023-01-23T10:49:00;3.48;86.14
74968;SHT30;63523;51.880;12.630;2023-01-23T10:54:17;3.48;86.49
74968;SHT30;63523;51.880;12.630;2023-01-23T10:59:32;3.54;85.78
74968;SHT30;63523;51.880;12.630;2023-01-23T11:04:28;3.50;85.89
74968;SHT30;63523;51.880;12.630;2023-01-23T11:10:20;3.52;85.43
74968;SHT30;63523;51.880;12.630;2023-01-23T11:12:52;3.48;85.86
74968;SHT30;63523;51.880;12.630;2023-01-23T11:15:19;3.54;86.35
74968;SHT30;63523;51.880;12.630;2023-01-23T11:17:46;3.58;85.78
74968;SHT30;63523;51.880;12.630;2023-01-23T11:20:26;3.50;86.30
74968;SHT30;63523;51.880;12.630;2023-01-23T11:23:04;3.59;85.78
74968;SHT30;63523;51.880;12.630;2023-01-23T11:25:32;3.50;86.08
74968;SHT30;63523;51.880;12.630;2023-01-23T11:31:05;3.65;85.49
74968;SHT30;63523;51.880;12.630;2023-01-23T11:33:38;3.72;85.31
74968;SHT30;63523;51.880;12.630;2023-01-23T11:36:16;3.72;84.95
74968;SHT30;63523;51.880;12.630;2023-01-23T11:38:56;3.66;84.88
74968;SHT30;63523;51.880;12.630;2023-01-23T11:41:27;3.76;84.35
74968;SHT30;63523;51.880;12.630;2023-01-23T11:43:53;3.59;84.88
74968;SHT30;63523;51.880;12.630;2023-01-23T11:59:41;3.72;84.45
74968;SHT30;63523;51.880;12.630;2023-01-23T12:02:31;3.63;84.69
74968;SHT30;63523;51.880;12.630;2023-01-23T12:17:04;3.61;85.98
74968;SHT30;63523;51.880;12.630;2023-01-23T12:22:46;3.73;85.57
74968;SHT30;63523;51.880;12.630;2023-01-23T12:25:33;3.79;85.94
74968;SHT30;63523;51.880;12.630;2023-01-23T12:42:28;3.73;85.11
74968;SHT30;63523;51.880;12.630;2023-01-23T12:50:44;3.76;85.13
74968;SHT30;63523;51.880;12.630;2023-01-23T12:53:13;3.76;84.85
74968;SHT30;63523;51.880;12.630;2023-01-23T12:58:17;3.73;85.84
74968;SHT30;63523;51.880;12.630;2023-01-23T13:00:45;3.78;85.63
74968;SHT30;63523;51.880;12.630;2023-01-23T13:07:05;3.83;85.50
74968;SHT30;63523;51.880;12.630;2023-01-23T13:09:05;3.80;85.29
74968;SHT30;63523;51.880;12.630;2023-01-23T13:16:55;3.72;85.52
74968;SHT30;63523;51.880;12.630;2023-01-23T13:19:29;3.72;85.65
74968;SHT30;63523;51.880;12.630;2023-01-23T13:22:30;3.89;85.42
74968;SHT30;63523;51.880;12.630;2023-01-23T13:27:38;3.82;85.25
74968;SHT30;63523;51.880;12.630;2023-01-23T13:30:35;3.75;85.60
74968;SHT30;63523;51.880;12.630;2023-01-23T13:49:13;3.76;85.80
74968;SHT30;63523;51.880;12.630;2023-01-23T13:52:00;3.82;85.52
74968;SHT30;63523;51.880;12.630;2023-01-23T13:54:30;3.79;85.74
74968;SHT30;63523;51.880;12.630;2023-01-23T13:57:16;3.80;85.53
74968;SHT30;63523;51.880;12.630;2023-01-23T13:59:44;3.69;85.71
74968;SHT30;63523;51.880;12.630;2023-01-23T14:05:20;3.78;84.54
74968;SHT30;63523;51.880;12.630;2023-01-23T14:07:47;3.73;85.16
74968;SHT30;63523;51.880;12.630;2023-01-23T14:13:10;3.75;85.55
74968;SHT30;63523;51.880;12.630;2023-01-23T14:15:37;3.68;85.81
74968;SHT30;63523;51.880;12.630;2023-01-23T14:23:42;3.68;86.01
74968;SHT30;63523;51.880;12.630;2023-01-23T14:26:14;3.51;86.17
74968;SHT30;63523;51.880;12.630;2023-01-23T14:31:27;3.42;86.41
74968;SHT30;63523;51.880;12.630;2023-01-23T14:36:25;3.46;85.98
74968;SHT30;63523;51.880;12.630;2023-01-23T14:38:51;3.50;85.53
74968;SHT30;63523;51.880;12.630;2023-01-23T14:41:18;3.36;86.44
74968;SHT30;63523;51.880;12.630;2023-01-23T14:43:45;3.42;86.21
74968;SHT30;63523;51.880;12.630;2023-01-23T14:46:18;3.38;86.21
74968;SHT30;63523;51.880;12.630;2023-01-23T14:48:48;3.45;86.24
74968;SHT30;63523;51.880;12.630;2023-01-23T14:51:23;3.48;85.62
74968;SHT30;63523;51.880;12.630;2023-01-23T14:56:23;3.41;86.36
74968;SHT30;63523;51.880;12.630;2023-01-23T14:58:49;3.50;85.59
74968;SHT30;63523;51.880;12.630;2023-01-23T15:01:15;3.55;85.55
74968;SHT30;63523;51.880;12.630;2023-01-23T15:03:43;3.55;85.52
74968;SHT30;63523;51.880;12.630;2023-01-23T15:06:19;3.58;85.56
74968;SHT30;63523;51.880;12.630;2023-01-23T15:08:46;3.51;85.76
74968;SHT30;63523;51.880;12.630;2023-01-23T15:11:12;3.48;86.27
74968;SHT30;63523;51.880;12.630;2023-01-23T15:13:49;3.38;86.20
74968;SHT30;63523;51.880;12.630;2023-01-23T15:16:23;3.32;86.64
74968;SHT30;63523;51.880;12.630;2023-01-23T15:18:52;3.34;86.42
74968;SHT30;63523;51.880;12.630;2023-01-23T15:22:00;3.44;86.49
74968;SHT30;63523;51.880;12.630;2023-01-23T15:24:28;3.48;85.87
74968;SHT30;63523;51.880;12.630;2023-01-23T15:27:02;3.46;86.17
74968;SHT30;63523;51.880;12.630;2023-01-23T15:29:28;3.42;85.30
74968;SHT30;63523;51.880;12.630;2023-01-23T15:31:55;3.34;86.08
74968;SHT30;63523;51.880;12.630;2023-01-23T15:34:25;3.41;86.17
74968;SHT30;63523;51.880;12.630;2023-01-23T15:36:52;3.42;85.16
74968;SHT30;63523;51.880;12.630;2023-01-23T15:39:32;3.39;85.79
74968;SHT30;63523;51.880;12.630;2023-01-23T15:42:01;3.46;85.76
74968;SHT30;63523;51.880;12.630;2023-01-23T15:44:29;3.51;85.55
74968;SHT30;63523;51.880;12.630;2023-01-23T15:46:56;3.45;85.45
74968;SHT30;63523;51.880;12.630;2023-01-23T15:49:26;3.34;86.45
74968;SHT30;63523;51.880;12.630;2023-01-23T15:51:54;3.38;85.53
74968;SHT30;63523;51.880;12.630;2023-01-23T15:54:27;3.44;85.31
74968;SHT30;63523;51.880;12.630;2023-01-23T15:56:55;3.30;85.87
74968;SHT30;63523;51.880;12.630;2023-01-23T15:59:20;3.34;86.04
74968;SHT30;63523;51.880;12.630;2023-01-23T16:01:46;3.36;85.52
74968;SHT30;63523;51.880;12.630;2023-01-23T16:04:12;3.27;85.64
74968;SHT30;63523;51.880;12.630;2023-01-23T16:06:38;3.31;85.98
74968;SHT30;63523;51.880;12.630;2023-01-23T16:09:04;3.27;85.98
74968;SHT30;63523;51.880;12.630;2023-01-23T16:11:33;3.18;85.96
74968;SHT30;63523;51.880;12.630;2023-01-23T16:14:00;3.31;85.50
74968;SHT30;63523;51.880;12.630;2023-01-23T16:16:27;3.30;85.44
74968;SHT30;63523;51.880;12.630;2023-01-23T16:18:52;3.36;85.60
74968;SHT30;63523;51.880;12.630;2023-01-23T16:21:20;3.28;86.02
74968;SHT30;63523;51.880;12.630;2023-01-23T16:23:49;3.24;86.15
74968;SHT30;63523;51.880;12.630;2023-01-23T16:26:20;3.13;86.57
74968;SHT30;63523;51.880;12.630;2023-01-23T16:28:45;3.08;86.97
74968;SHT30;63523;51.880;12.630;2023-01-23T16:31:12;3.11;87.02
74968;SHT30;63523;51.880;12.630;2023-01-23T16:33:38;3.21;86.31
74968;SHT30;63523;51.880;12.630;2023-01-23T16:36:04;3.23;86.20
74968;SHT30;63523;51.880;12.630;2023-01-23T16:38:30;3.30;85.95
74968;SHT30;63523;51.880;12.630;2023-01-23T16:40:57;3.28;85.92
74968;SHT30;63523;51.880;12.630;2023-01-23T16:43:24;3.23;86.01
74968;SHT30;63523;51.880;12.630;2023-01-23T16:45:51;3.18;86.33
74968;SHT30;63523;51.880;12.630;2023-01-23T16:48:17;3.17;86.65
74968;SHT30;63523;51.880;12.630;2023-01-23T16:50:46;3.21;86.51
74968;SHT30;63523;51.880;12.630;2023-01-23T16:53:23;3.23;86.61
74968;SHT30;63523;51.880;12.630;2023-01-23T16:55:49;3.14;86.50
74968;SHT30;63523;51.880;12.630;2023-01-23T16:58:24;3.20;86.41
74968;SHT30;63523;51.880;12.630;2023-01-23T17:00:56;3.08;86.53
74968;SHT30;63523;51.880;12.630;2023-01-23T17:03:27;3.11;86.66
74968;SHT30;63523;51.880;12.630;2023-01-23T17:05:53;3.10;86.68
74968;SHT30;63523;51.880;12.630;2023-01-23T17:08:20;3.17;86.47
74968;SHT30;63523;51.880;12.630;2023-01-23T17:10:47;3.04;86.80
74968;SHT30;63523;51.880;12.630;2023-01-23T17:13:15;3.21;86.21
74968;SHT30;63523;51.880;12.630;2023-01-23T17:15:41;3.06;86.52
74968;SHT30;63523;51.880;12.630;2023-01-23T17:18:18;2.99;87.13
74968;SHT30;63523;51.880;12.630;2023-01-23T17:20:45;3.04;87.18
74968;SHT30;63523;51.880;12.630;2023-01-23T17:23:13;3.10;86.45
74968;SHT30;63523;51.880;12.630;2023-01-23T17:25:38;3.06;86.79
74968;SHT30;63523;51.880;12.630;2023-01-23T17:28:10;3.03;87.06
74968;SHT30;63523;51.880;12.630;2023-01-23T17:30:36;3.14;86.48
74968;SHT30;63523;51.880;12.630;2023-01-23T17:33:03;3.10;86.74
74968;SHT30;63523;51.880;12.630;2023-01-23T17:35:33;3.10;86.52
74968;SHT30;63523;51.880;12.630;2023-01-23T17:38:01;3.15;86.20
74968;SHT30;63523;51.880;12.630;2023-01-23T17:40:27;3.23;85.81
74968;SHT30;63523;51.880;12.630;2023-01-23T17:42:53;3.15;85.75
74968;SHT30;63523;51.880;12.630;2023-01-23T17:45:21;3.14;85.74
74968;SHT30;63523;51.880;12.630;2023-01-23T17:47:56;3.06;85.94
74968;SHT30;63523;51.880;12.630;2023-01-23T17:50:23;3.04;86.18
74968;SHT30;63523;51.880;12.630;2023-01-23T17:52:50;3.08;85.65
74968;SHT30;63523;51.880;12.630;2023-01-23T17:55:19;3.00;86.06
74968;SHT30;63523;51.880;12.630;2023-01-23T17:57:45;3.15;85.71